Portada
METAR-TAF:

METAR-TAF

Aeropuertos :

Aeropuerto Internacional de Kansas City

Kansas City, Misuri, Estados Unidos

latitud: 39-17-50N, longitud: 094-43-50W, altitud: 312 m

Observación

El informe se hizo hace 28 minutos, a las 05:53 UTC
Viento 6 kt del suroeste
Temperatura -3°C
Humedad 54%
Presión 1024 hPa
Visibilidad: 16.1 km
Cielo despejado

METAR: KMCI 270553Z 22006KT 10SM CLR M03/M11 A3024 RMK AO2 SLP250 T10331111 10022 21039 400501039 58011

Hora: 00:21 (06:21 UTC)

Pronóstico

El informe se hizo hace 1 hora y 1 minutos, a las 05:20 UTC
Pronóstico válido del 27 a las 06 UTC al 28 a las 06 UTC
Viento 7 kt del suroeste
Visibilidad: 10 km
Nubes dispersas a una altura de 20000 ft
A partir de las 27 a las 2000 UTC
Viento 8 kt del oeste
Visibilidad: 10 km
Cielo nuboso a una altura de 5000 ft

TAF: KMCI 270520Z 2706/2806 22007KT P6SM SCT200 FM272000 28008KT P6SM BKN050

Observaciones y pronósticos meteorológicos de más de 4000 aeropuertos (mensajes METAR y TAF).

Los puntos amarillos y rojos representan las estaciones disponibles.

Ponga el ratón en el punto deseado para ver el nombre de la estación.

Haga clic para ver las observaciones y los pronósticos meteorológicos.

Para cambiar el mapa : haga clic en los botones verdes con una cruz de color negro para hacer un zoom, en el botón verde con un guión para alejar o en las flechas verdes para mapas adyacentes.


METAR-TAF: